sensor_id;sensor_type;location;lat;lon;timestamp;temperature;humidity
78536;SHT31;67829;51.968;5.684;2023-11-21T00:01:01;11.5;71.7
78536;SHT31;67829;51.968;5.684;2023-11-21T00:03:31;11.5;71.2
78536;SHT31;67829;51.968;5.684;2023-11-21T00:06:01;11.5;70.9
78536;SHT31;67829;51.968;5.684;2023-11-21T00:08:32;11.5;70.4
78536;SHT31;67829;51.968;5.684;2023-11-21T00:11:01;11.5;69.8
78536;SHT31;67829;51.968;5.684;2023-11-21T00:13:31;11.5;69.6
78536;SHT31;67829;51.968;5.684;2023-11-21T00:16:00;11.5;69.2
78536;SHT31;67829;51.968;5.684;2023-11-21T00:18:29;11.4;69.1
78536;SHT31;67829;51.968;5.684;2023-11-21T00:20:59;11.4;69.1
78536;SHT31;67829;51.968;5.684;2023-11-21T00:23:28;11.4;69.2
78536;SHT31;67829;51.968;5.684;2023-11-21T00:25:56;11.4;69.2
78536;SHT31;67829;51.968;5.684;2023-11-21T00:28:26;11.3;69.8
78536;SHT31;67829;51.968;5.684;2023-11-21T00:30:54;11.3;69.7
78536;SHT31;67829;51.968;5.684;2023-11-21T00:33:23;11.3;69.7
78536;SHT31;67829;51.968;5.684;2023-11-21T00:35:54;11.3;69.7
78536;SHT31;67829;51.968;5.684;2023-11-21T00:38:23;11.3;69.2
78536;SHT31;67829;51.968;5.684;2023-11-21T00:40:51;11.2;69.9
78536;SHT31;67829;51.968;5.684;2023-11-21T00:43:22;11.2;70.5
78536;SHT31;67829;51.968;5.684;2023-11-21T00:45:51;11.2;70.7
78536;SHT31;67829;51.968;5.684;2023-11-21T00:48:21;11.2;70.9
78536;SHT31;67829;51.968;5.684;2023-11-21T00:50:50;11.2;71.0
78536;SHT31;67829;51.968;5.684;2023-11-21T00:53:18;11.1;71.2
78536;SHT31;67829;51.968;5.684;2023-11-21T00:55:47;11.1;71.3
78536;SHT31;67829;51.968;5.684;2023-11-21T00:58:15;11.1;71.3
78536;SHT31;67829;51.968;5.684;2023-11-21T01:00:44;11.1;71.2
78536;SHT31;67829;51.968;5.684;2023-11-21T01:03:15;11.1;70.9
78536;SHT31;67829;51.968;5.684;2023-11-21T01:05:43;11.0;71.2
78536;SHT31;67829;51.968;5.684;2023-11-21T01:08:12;11.0;70.6
78536;SHT31;67829;51.968;5.684;2023-11-21T01:10:42;11.0;69.9
78536;SHT31;67829;51.968;5.684;2023-11-21T01:13:13;11.0;69.8
78536;SHT31;67829;51.968;5.684;2023-11-21T01:15:43;11.0;69.7
78536;SHT31;67829;51.968;5.684;2023-11-21T01:18:12;11.0;69.6
78536;SHT31;67829;51.968;5.684;2023-11-21T01:20:43;11.0;69.5
78536;SHT31;67829;51.968;5.684;2023-11-21T01:23:13;11.0;69.8
78536;SHT31;67829;51.968;5.684;2023-11-21T01:25:41;11.0;69.9
78536;SHT31;67829;51.968;5.684;2023-11-21T01:28:10;11.0;70.2
78536;SHT31;67829;51.968;5.684;2023-11-21T01:30:38;11.0;70.4
78536;SHT31;67829;51.968;5.684;2023-11-21T01:33:07;11.0;70.4
78536;SHT31;67829;51.968;5.684;2023-11-21T01:35:36;11.0;70.1
78536;SHT31;67829;51.968;5.684;2023-11-21T01:38:04;11.0;70.1
78536;SHT31;67829;51.968;5.684;2023-11-21T01:40:35;11.0;70.3
78536;SHT31;67829;51.968;5.684;2023-11-21T01:43:04;11.0;70.1
78536;SHT31;67829;51.968;5.684;2023-11-21T01:45:32;11.1;70.0
78536;SHT31;67829;51.968;5.684;2023-11-21T01:48:02;11.1;70.2
78536;SHT31;67829;51.968;5.684;2023-11-21T01:50:35;11.1;70.0
78536;SHT31;67829;51.968;5.684;2023-11-21T01:53:04;11.1;69.9
78536;SHT31;67829;51.968;5.684;2023-11-21T01:55:33;11.1;69.4
78536;SHT31;67829;51.968;5.684;2023-11-21T01:58:02;11.1;69.2
78536;SHT31;67829;51.968;5.684;2023-11-21T02:00:31;11.1;69.6
78536;SHT31;67829;51.968;5.684;2023-11-21T02:03:00;11.0;69.9
78536;SHT31;67829;51.968;5.684;2023-11-21T02:05:30;11.0;70.3
78536;SHT31;67829;51.968;5.684;2023-11-21T02:07:59;11.0;70.9
78536;SHT31;67829;51.968;5.684;2023-11-21T02:10:30;11.0;71.6
78536;SHT31;67829;51.968;5.684;2023-11-21T02:13:01;11.0;71.9
78536;SHT31;67829;51.968;5.684;2023-11-21T02:15:30;11.0;72.0
78536;SHT31;67829;51.968;5.684;2023-11-21T02:17:58;11.0;71.9
78536;SHT31;67829;51.968;5.684;2023-11-21T02:20:29;11.1;71.9
78536;SHT31;67829;51.968;5.684;2023-11-21T02:23:01;11.1;71.9
78536;SHT31;67829;51.968;5.684;2023-11-21T02:25:32;11.1;71.7
78536;SHT31;67829;51.968;5.684;2023-11-21T02:28:04;11.1;71.7
78536;SHT31;67829;51.968;5.684;2023-11-21T02:30:35;11.1;71.8
78536;SHT31;67829;51.968;5.684;2023-11-21T02:33:05;11.1;71.8
78536;SHT31;67829;51.968;5.684;2023-11-21T02:35:34;11.1;72.1
78536;SHT31;67829;51.968;5.684;2023-11-21T02:38:04;11.1;72.1
78536;SHT31;67829;51.968;5.684;2023-11-21T02:40:32;11.1;72.1
78536;SHT31;67829;51.968;5.684;2023-11-21T02:43:01;11.1;72.0
78536;SHT31;67829;51.968;5.684;2023-11-21T02:45:32;11.1;72.1
78536;SHT31;67829;51.968;5.684;2023-11-21T02:48:00;11.1;72.0
78536;SHT31;67829;51.968;5.684;2023-11-21T02:50:29;11.1;71.9
78536;SHT31;67829;51.968;5.684;2023-11-21T02:52:58;11.1;71.6
78536;SHT31;67829;51.968;5.684;2023-11-21T02:55:28;11.0;71.1
78536;SHT31;67829;51.968;5.684;2023-11-21T02:57:57;11.0;71.0
78536;SHT31;67829;51.968;5.684;2023-11-21T03:00:26;11.0;70.9
78536;SHT31;67829;51.968;5.684;2023-11-21T03:02:55;11.0;70.9
78536;SHT31;67829;51.968;5.684;2023-11-21T03:05:24;11.0;71.0
78536;SHT31;67829;51.968;5.684;2023-11-21T03:07:53;11.0;71.2
78536;SHT31;67829;51.968;5.684;2023-11-21T03:10:23;10.9;71.4
78536;SHT31;67829;51.968;5.684;2023-11-21T03:12:52;10.9;71.4
78536;SHT31;67829;51.968;5.684;2023-11-21T03:15:20;10.9;71.7
78536;SHT31;67829;51.968;5.684;2023-11-21T03:17:49;10.9;71.7
78536;SHT31;67829;51.968;5.684;2023-11-21T03:20:17;10.9;71.9
78536;SHT31;67829;51.968;5.684;2023-11-21T03:22:46;10.9;71.9
78536;SHT31;67829;51.968;5.684;2023-11-21T03:25:15;10.9;71.9
78536;SHT31;67829;51.968;5.684;2023-11-21T03:27:44;10.9;71.9
78536;SHT31;67829;51.968;5.684;2023-11-21T03:30:13;10.9;72.1
78536;SHT31;67829;51.968;5.684;2023-11-21T03:32:43;10.9;72.2
78536;SHT31;67829;51.968;5.684;2023-11-21T03:35:11;10.9;72.4
78536;SHT31;67829;51.968;5.684;2023-11-21T03:37:40;10.9;72.2
78536;SHT31;67829;51.968;5.684;2023-11-21T03:40:10;10.9;72.5
78536;SHT31;67829;51.968;5.684;2023-11-21T03:42:39;11.0;72.5
78536;SHT31;67829;51.968;5.684;2023-11-21T03:45:09;11.0;72.3
78536;SHT31;67829;51.968;5.684;2023-11-21T03:47:38;11.0;72.2
78536;SHT31;67829;51.968;5.684;2023-11-21T03:50:08;11.0;72.3
78536;SHT31;67829;51.968;5.684;2023-11-21T03:52:37;11.1;72.1
78536;SHT31;67829;51.968;5.684;2023-11-21T03:55:06;11.1;72.3
78536;SHT31;67829;51.968;5.684;2023-11-21T03:57:36;11.1;72.3
78536;SHT31;67829;51.968;5.684;2023-11-21T04:00:06;11.1;72.5
78536;SHT31;67829;51.968;5.684;2023-11-21T04:02:36;11.1;72.3
78536;SHT31;67829;51.968;5.684;2023-11-21T04:05:06;11.1;72.2
78536;SHT31;67829;51.968;5.684;2023-11-21T04:07:35;11.2;72.3
78536;SHT31;67829;51.968;5.684;2023-11-21T04:10:06;11.2;72.8
78536;SHT31;67829;51.968;5.684;2023-11-21T04:12:36;11.2;73.1
78536;SHT31;67829;51.968;5.684;2023-11-21T04:15:05;11.2;73.2
78536;SHT31;67829;51.968;5.684;2023-11-21T04:17:35;11.2;73.3
78536;SHT31;67829;51.968;5.684;2023-11-21T04:20:05;11.2;73.4
78536;SHT31;67829;51.968;5.684;2023-11-21T04:22:36;11.2;73.5
78536;SHT31;67829;51.968;5.684;2023-11-21T04:25:07;11.2;73.5
78536;SHT31;67829;51.968;5.684;2023-11-21T04:27:36;11.2;73.5
78536;SHT31;67829;51.968;5.684;2023-11-21T04:30:05;11.3;73.4
78536;SHT31;67829;51.968;5.684;2023-11-21T04:32:34;11.3;73.4
78536;SHT31;67829;51.968;5.684;2023-11-21T04:35:03;11.3;73.4
78536;SHT31;67829;51.968;5.684;2023-11-21T04:37:32;11.3;73.3
78536;SHT31;67829;51.968;5.684;2023-11-21T04:40:00;11.3;73.2
78536;SHT31;67829;51.968;5.684;2023-11-21T04:42:32;11.3;73.3
78536;SHT31;67829;51.968;5.684;2023-11-21T04:45:00;11.4;73.4
78536;SHT31;67829;51.968;5.684;2023-11-21T04:47:32;11.4;73.3
78536;SHT31;67829;51.968;5.684;2023-11-21T04:50:00;11.4;73.3
78536;SHT31;67829;51.968;5.684;2023-11-21T04:52:29;11.4;73.4
78536;SHT31;67829;51.968;5.684;2023-11-21T04:54:59;11.4;73.4
78536;SHT31;67829;51.968;5.684;2023-11-21T04:57:29;11.4;73.5
78536;SHT31;67829;51.968;5.684;2023-11-21T04:59:58;11.4;73.4
78536;SHT31;67829;51.968;5.684;2023-11-21T05:02:26;11.4;73.5
78536;SHT31;67829;51.968;5.684;2023-11-21T05:04:55;11.4;73.6
78536;SHT31;67829;51.968;5.684;2023-11-21T05:07:23;11.4;73.6
78536;SHT31;67829;51.968;5.684;2023-11-21T05:09:55;11.5;73.7
78536;SHT31;67829;51.968;5.684;2023-11-21T05:12:25;11.5;73.8
78536;SHT31;67829;51.968;5.684;2023-11-21T05:14:53;11.5;73.7
78536;SHT31;67829;51.968;5.684;2023-11-21T05:17:22;11.5;73.7
78536;SHT31;67829;51.968;5.684;2023-11-21T05:19:50;11.5;73.6
78536;SHT31;67829;51.968;5.684;2023-11-21T05:22:19;11.6;73.5
78536;SHT31;67829;51.968;5.684;2023-11-21T05:24:48;11.6;73.2
78536;SHT31;67829;51.968;5.684;2023-11-21T05:27:17;11.6;72.8
78536;SHT31;67829;51.968;5.684;2023-11-21T05:29:45;11.6;72.4
78536;SHT31;67829;51.968;5.684;2023-11-21T05:32:14;11.6;72.2
78536;SHT31;67829;51.968;5.684;2023-11-21T05:34:43;11.6;72.1
78536;SHT31;67829;51.968;5.684;2023-11-21T05:37:12;11.6;72.0
78536;SHT31;67829;51.968;5.684;2023-11-21T05:39:40;11.5;72.0
78536;SHT31;67829;51.968;5.684;2023-11-21T05:42:09;11.5;72.2
78536;SHT31;67829;51.968;5.684;2023-11-21T05:44:41;11.5;72.3
78536;SHT31;67829;51.968;5.684;2023-11-21T05:47:11;11.5;72.4
78536;SHT31;67829;51.968;5.684;2023-11-21T05:49:42;11.5;72.8
78536;SHT31;67829;51.968;5.684;2023-11-21T05:52:11;11.5;72.6
78536;SHT31;67829;51.968;5.684;2023-11-21T05:54:40;11.5;72.7
78536;SHT31;67829;51.968;5.684;2023-11-21T05:57:08;11.5;73.0
78536;SHT31;67829;51.968;5.684;2023-11-21T05:59:37;11.5;73.1
78536;SHT31;67829;51.968;5.684;2023-11-21T06:02:06;11.5;73.2
78536;SHT31;67829;51.968;5.684;2023-11-21T06:04:34;11.5;73.2
78536;SHT31;67829;51.968;5.684;2023-11-21T06:07:03;11.5;73.0
78536;SHT31;67829;51.968;5.684;2023-11-21T06:09:32;11.5;72.8
78536;SHT31;67829;51.968;5.684;2023-11-21T06:12:01;11.5;73.1
78536;SHT31;67829;51.968;5.684;2023-11-21T06:14:30;11.5;73.1
78536;SHT31;67829;51.968;5.684;2023-11-21T06:16:59;11.5;73.2
78536;SHT31;67829;51.968;5.684;2023-11-21T06:19:28;11.5;73.4
78536;SHT31;67829;51.968;5.684;2023-11-21T06:21:57;11.5;73.4
78536;SHT31;67829;51.968;5.684;2023-11-21T06:24:26;11.5;73.6
78536;SHT31;67829;51.968;5.684;2023-11-21T06:26:54;11.5;73.6
78536;SHT31;67829;51.968;5.684;2023-11-21T06:29:22;11.4;73.6
78536;SHT31;67829;51.968;5.684;2023-11-21T06:31:52;11.4;73.7
78536;SHT31;67829;51.968;5.684;2023-11-21T06:34:21;11.4;73.9
78536;SHT31;67829;51.968;5.684;2023-11-21T06:36:50;11.5;74.0
78536;SHT31;67829;51.968;5.684;2023-11-21T06:39:18;11.5;74.0
78536;SHT31;67829;51.968;5.684;2023-11-21T06:41:49;11.5;73.9
78536;SHT31;67829;51.968;5.684;2023-11-21T06:44:17;11.5;74.1
78536;SHT31;67829;51.968;5.684;2023-11-21T06:46:46;11.5;74.1
78536;SHT31;67829;51.968;5.684;2023-11-21T06:49:15;11.5;74.3
78536;SHT31;67829;51.968;5.684;2023-11-21T06:51:43;11.5;74.1
78536;SHT31;67829;51.968;5.684;2023-11-21T06:54:12;11.5;74.1
78536;SHT31;67829;51.968;5.684;2023-11-21T06:56:40;11.5;74.1
78536;SHT31;67829;51.968;5.684;2023-11-21T06:59:11;11.6;74.1
78536;SHT31;67829;51.968;5.684;2023-11-21T07:01:39;11.6;74.1
78536;SHT31;67829;51.968;5.684;2023-11-21T07:04:11;11.6;74.4
78536;SHT31;67829;51.968;5.684;2023-11-21T07:06:42;11.6;74.5
78536;SHT31;67829;51.968;5.684;2023-11-21T07:09:13;11.6;74.7
78536;SHT31;67829;51.968;5.684;2023-11-21T07:11:44;11.6;74.8
78536;SHT31;67829;51.968;5.684;2023-11-21T07:14:14;11.6;74.9
78536;SHT31;67829;51.968;5.684;2023-11-21T07:16:46;11.6;75.0
78536;SHT31;67829;51.968;5.684;2023-11-21T07:19:15;11.7;75.1
78536;SHT31;67829;51.968;5.684;2023-11-21T07:21:43;11.7;75.1
78536;SHT31;67829;51.968;5.684;2023-11-21T07:24:12;11.7;75.0
78536;SHT31;67829;51.968;5.684;2023-11-21T07:26:40;11.7;75.0
78536;SHT31;67829;51.968;5.684;2023-11-21T07:29:09;11.8;74.9
78536;SHT31;67829;51.968;5.684;2023-11-21T07:31:38;11.8;74.9
78536;SHT31;67829;51.968;5.684;2023-11-21T07:34:07;11.8;74.9
78536;SHT31;67829;51.968;5.684;2023-11-21T07:36:40;11.8;74.9
78536;SHT31;67829;51.968;5.684;2023-11-21T07:39:08;11.9;74.8
78536;SHT31;67829;51.968;5.684;2023-11-21T07:41:37;11.9;74.7
78536;SHT31;67829;51.968;5.684;2023-11-21T07:44:11;11.9;74.8
78536;SHT31;67829;51.968;5.684;2023-11-21T07:46:39;11.9;74.9
78536;SHT31;67829;51.968;5.684;2023-11-21T07:49:08;12.0;74.8
78536;SHT31;67829;51.968;5.684;2023-11-21T07:51:37;12.0;74.8
78536;SHT31;67829;51.968;5.684;2023-11-21T07:54:07;12.0;74.6
78536;SHT31;67829;51.968;5.684;2023-11-21T07:56:36;12.1;74.6
78536;SHT31;67829;51.968;5.684;2023-11-21T07:59:05;12.1;74.5
78536;SHT31;67829;51.968;5.684;2023-11-21T08:01:33;12.1;74.4
78536;SHT31;67829;51.968;5.684;2023-11-21T08:04:02;12.1;74.5
78536;SHT31;67829;51.968;5.684;2023-11-21T08:06:31;12.1;74.5
78536;SHT31;67829;51.968;5.684;2023-11-21T08:08:59;12.2;74.6
78536;SHT31;67829;51.968;5.684;2023-11-21T08:11:28;12.2;74.6
78536;SHT31;67829;51.968;5.684;2023-11-21T08:13:59;12.2;74.6
78536;SHT31;67829;51.968;5.684;2023-11-21T08:16:29;12.2;74.5
78536;SHT31;67829;51.968;5.684;2023-11-21T08:18:58;12.2;74.4
78536;SHT31;67829;51.968;5.684;2023-11-21T08:21:27;12.3;74.4
78536;SHT31;67829;51.968;5.684;2023-11-21T08:23:56;12.3;74.6
78536;SHT31;67829;51.968;5.684;2023-11-21T08:26:26;12.3;74.5
78536;SHT31;67829;51.968;5.684;2023-11-21T08:28:55;12.3;74.2
78536;SHT31;67829;51.968;5.684;2023-11-21T08:31:28;12.4;74.2
78536;SHT31;67829;51.968;5.684;2023-11-21T08:33:57;12.4;74.4
78536;SHT31;67829;51.968;5.684;2023-11-21T08:36:31;12.4;74.3
78536;SHT31;67829;51.968;5.684;2023-11-21T08:38:59;12.4;73.8
78536;SHT31;67829;51.968;5.684;2023-11-21T08:41:30;12.4;74.1
78536;SHT31;67829;51.968;5.684;2023-11-21T08:43:58;12.5;73.9
78536;SHT31;67829;51.968;5.684;2023-11-21T08:46:27;12.5;74.3
78536;SHT31;67829;51.968;5.684;2023-11-21T08:48:55;12.5;74.2
78536;SHT31;67829;51.968;5.684;2023-11-21T08:51:24;12.5;74.1
78536;SHT31;67829;51.968;5.684;2023-11-21T08:53:52;12.5;74.3
78536;SHT31;67829;51.968;5.684;2023-11-21T08:56:25;12.6;74.2
78536;SHT31;67829;51.968;5.684;2023-11-21T08:58:55;12.6;74.2
78536;SHT31;67829;51.968;5.684;2023-11-21T09:01:24;12.6;74.1
78536;SHT31;67829;51.968;5.684;2023-11-21T09:03:55;12.6;74.2
78536;SHT31;67829;51.968;5.684;2023-11-21T09:06:23;12.7;73.9
78536;SHT31;67829;51.968;5.684;2023-11-21T09:08:52;12.7;73.9
78536;SHT31;67829;51.968;5.684;2023-11-21T09:11:20;12.7;73.9
78536;SHT31;67829;51.968;5.684;2023-11-21T09:13:53;12.7;74.1
78536;SHT31;67829;51.968;5.684;2023-11-21T09:16:26;12.7;74.1
78536;SHT31;67829;51.968;5.684;2023-11-21T09:18:54;12.8;74.1
78536;SHT31;67829;51.968;5.684;2023-11-21T09:21:23;12.8;74.2
78536;SHT31;67829;51.968;5.684;2023-11-21T09:23:52;12.8;74.3
78536;SHT31;67829;51.968;5.684;2023-11-21T09:26:20;12.8;74.2
78536;SHT31;67829;51.968;5.684;2023-11-21T09:28:49;12.8;73.9
78536;SHT31;67829;51.968;5.684;2023-11-21T09:31:17;12.8;74.3
78536;SHT31;67829;51.968;5.684;2023-11-21T09:33:51;12.8;74.5
78536;SHT31;67829;51.968;5.684;2023-11-21T09:36:19;12.8;74.4
78536;SHT31;67829;51.968;5.684;2023-11-21T09:38:50;12.8;74.6
78536;SHT31;67829;51.968;5.684;2023-11-21T09:41:26;12.9;74.4
78536;SHT31;67829;51.968;5.684;2023-11-21T09:43:57;12.9;74.3
78536;SHT31;67829;51.968;5.684;2023-11-21T09:46:28;12.9;74.7
78536;SHT31;67829;51.968;5.684;2023-11-21T09:49:00;12.9;74.6
78536;SHT31;67829;51.968;5.684;2023-11-21T09:51:36;12.9;74.9
78536;SHT31;67829;51.968;5.684;2023-11-21T09:54:05;12.9;75.5
78536;SHT31;67829;51.968;5.684;2023-11-21T09:56:37;12.9;75.7
78536;SHT31;67829;51.968;5.684;2023-11-21T09:59:08;13.0;76.3
78536;SHT31;67829;51.968;5.684;2023-11-21T10:01:42;13.0;76.6
78536;SHT31;67829;51.968;5.684;2023-11-21T10:04:11;13.1;76.2
78536;SHT31;67829;51.968;5.684;2023-11-21T10:06:41;13.1;75.8
78536;SHT31;67829;51.968;5.684;2023-11-21T10:09:13;13.1;75.3
78536;SHT31;67829;51.968;5.684;2023-11-21T10:11:43;13.2;75.4
78536;SHT31;67829;51.968;5.684;2023-11-21T10:14:12;13.2;75.4
78536;SHT31;67829;51.968;5.684;2023-11-21T10:16:41;13.2;75.1
78536;SHT31;67829;51.968;5.684;2023-11-21T10:19:14;13.2;74.5
78536;SHT31;67829;51.968;5.684;2023-11-21T10:21:44;13.2;74.5
78536;SHT31;67829;51.968;5.684;2023-11-21T10:24:13;13.2;74.6
78536;SHT31;67829;51.968;5.684;2023-11-21T10:26:42;13.2;74.7
78536;SHT31;67829;51.968;5.684;2023-11-21T10:29:14;13.2;74.5
78536;SHT31;67829;51.968;5.684;2023-11-21T10:31:44;13.2;74.3
78536;SHT31;67829;51.968;5.684;2023-11-21T10:34:16;13.2;74.5
78536;SHT31;67829;51.968;5.684;2023-11-21T10:36:45;13.2;74.3
78536;SHT31;67829;51.968;5.684;2023-11-21T10:39:17;13.2;74.4
78536;SHT31;67829;51.968;5.684;2023-11-21T10:41:46;13.2;74.5
78536;SHT31;67829;51.968;5.684;2023-11-21T10:44:17;13.2;74.6
78536;SHT31;67829;51.968;5.684;2023-11-21T10:46:49;13.2;74.5
78536;SHT31;67829;51.968;5.684;2023-11-21T10:49:18;13.2;74.4
78536;SHT31;67829;51.968;5.684;2023-11-21T10:51:48;13.2;74.5
78536;SHT31;67829;51.968;5.684;2023-11-21T10:54:20;13.2;74.7
78536;SHT31;67829;51.968;5.684;2023-11-21T10:56:51;13.2;74.5
78536;SHT31;67829;51.968;5.684;2023-11-21T10:59:23;13.1;74.4
78536;SHT31;67829;51.968;5.684;2023-11-21T11:01:53;13.1;74.7
78536;SHT31;67829;51.968;5.684;2023-11-21T11:04:24;13.1;74.5
78536;SHT31;67829;51.968;5.684;2023-11-21T11:06:57;13.1;74.5
78536;SHT31;67829;51.968;5.684;2023-11-21T11:09:30;13.1;74.2
78536;SHT31;67829;51.968;5.684;2023-11-21T11:12:01;13.1;74.2
78536;SHT31;67829;51.968;5.684;2023-11-21T11:14:32;13.1;74.3
78536;SHT31;67829;51.968;5.684;2023-11-21T11:17:01;13.1;74.3
78536;SHT31;67829;51.968;5.684;2023-11-21T11:19:33;13.1;74.2
78536;SHT31;67829;51.968;5.684;2023-11-21T11:22:12;13.1;74.2
78536;SHT31;67829;51.968;5.684;2023-11-21T11:24:54;13.1;74.2
78536;SHT31;67829;51.968;5.684;2023-11-21T11:27:37;13.0;74.2
78536;SHT31;67829;51.968;5.684;2023-11-21T11:30:20;13.0;74.2
78536;SHT31;67829;51.968;5.684;2023-11-21T11:32:58;13.0;74.3
78536;SHT31;67829;51.968;5.684;2023-11-21T11:35:36;13.0;74.8
78536;SHT31;67829;51.968;5.684;2023-11-21T11:38:07;13.0;74.8
78536;SHT31;67829;51.968;5.684;2023-11-21T11:40:45;13.0;74.6
78536;SHT31;67829;51.968;5.684;2023-11-21T11:43:26;13.0;74.5
78536;SHT31;67829;51.968;5.684;2023-11-21T11:45:58;13.0;74.7
78536;SHT31;67829;51.968;5.684;2023-11-21T11:48:30;13.0;74.5
78536;SHT31;67829;51.968;5.684;2023-11-21T11:51:09;13.0;74.7
78536;SHT31;67829;51.968;5.684;2023-11-21T11:53:43;13.0;74.6
78536;SHT31;67829;51.968;5.684;2023-11-21T11:56:26;13.0;74.5
78536;SHT31;67829;51.968;5.684;2023-11-21T11:58:57;13.0;74.7
78536;SHT31;67829;51.968;5.684;2023-11-21T12:01:27;13.0;75.1
78536;SHT31;67829;51.968;5.684;2023-11-21T12:04:26;13.0;75.2
78536;SHT31;67829;51.968;5.684;2023-11-21T12:07:04;13.0;74.8
78536;SHT31;67829;51.968;5.684;2023-11-21T12:09:33;13.0;74.9
78536;SHT31;67829;51.968;5.684;2023-11-21T12:12:02;13.0;75.2
78536;SHT31;67829;51.968;5.684;2023-11-21T12:14:31;13.0;74.9
78536;SHT31;67829;51.968;5.684;2023-11-21T12:16:59;13.0;74.7
78536;SHT31;67829;51.968;5.684;2023-11-21T12:19:29;13.0;74.7
78536;SHT31;67829;51.968;5.684;2023-11-21T12:21:59;13.1;74.7
78536;SHT31;67829;51.968;5.684;2023-11-21T12:24:27;13.1;74.7
78536;SHT31;67829;51.968;5.684;2023-11-21T12:26:56;13.1;75.0
78536;SHT31;67829;51.968;5.684;2023-11-21T12:29:25;13.1;74.8
78536;SHT31;67829;51.968;5.684;2023-11-21T12:31:56;13.1;74.4
78536;SHT31;67829;51.968;5.684;2023-11-21T12:34:24;13.1;74.1
78536;SHT31;67829;51.968;5.684;2023-11-21T12:36:53;13.1;73.9
78536;SHT31;67829;51.968;5.684;2023-11-21T12:39:22;13.1;73.4
78536;SHT31;67829;51.968;5.684;2023-11-21T12:41:53;13.2;73.6
78536;SHT31;67829;51.968;5.684;2023-11-21T12:44:23;13.2;73.7
78536;SHT31;67829;51.968;5.684;2023-11-21T12:46:52;13.2;73.6
78536;SHT31;67829;51.968;5.684;2023-11-21T12:49:22;13.1;73.4
78536;SHT31;67829;51.968;5.684;2023-11-21T12:51:50;13.1;73.6
78536;SHT31;67829;51.968;5.684;2023-11-21T12:54:21;13.1;73.3
78536;SHT31;67829;51.968;5.684;2023-11-21T12:56:50;13.1;73.1
78536;SHT31;67829;51.968;5.684;2023-11-21T12:59:20;13.1;73.2
78536;SHT31;67829;51.968;5.684;2023-11-21T13:01:49;13.1;73.1
78536;SHT31;67829;51.968;5.684;2023-11-21T13:04:18;13.1;73.3
78536;SHT31;67829;51.968;5.684;2023-11-21T13:06:46;13.1;73.3
78536;SHT31;67829;51.968;5.684;2023-11-21T13:09:15;13.1;73.3
78536;SHT31;67829;51.968;5.684;2023-11-21T13:11:48;13.1;73.4
78536;SHT31;67829;51.968;5.684;2023-11-21T13:14:16;13.1;73.7
78536;SHT31;67829;51.968;5.684;2023-11-21T13:16:45;13.1;73.5
78536;SHT31;67829;51.968;5.684;2023-11-21T13:19:14;13.1;72.9
78536;SHT31;67829;51.968;5.684;2023-11-21T13:21:42;13.1;72.6
78536;SHT31;67829;51.968;5.684;2023-11-21T13:24:11;13.1;72.3
78536;SHT31;67829;51.968;5.684;2023-11-21T13:26:40;13.1;72.7
78536;SHT31;67829;51.968;5.684;2023-11-21T13:29:12;13.1;72.6
78536;SHT31;67829;51.968;5.684;2023-11-21T13:31:42;13.1;72.7
78536;SHT31;67829;51.968;5.684;2023-11-21T13:34:11;13.1;72.0
78536;SHT31;67829;51.968;5.684;2023-11-21T13:36:41;13.1;72.1
78536;SHT31;67829;51.968;5.684;2023-11-21T13:39:09;13.1;72.3
78536;SHT31;67829;51.968;5.684;2023-11-21T13:41:42;13.1;72.2
78536;SHT31;67829;51.968;5.684;2023-11-21T13:44:14;13.1;72.2
78536;SHT31;67829;51.968;5.684;2023-11-21T13:46:49;13.1;72.8
78536;SHT31;67829;51.968;5.684;2023-11-21T13:49:20;13.1;72.7
78536;SHT31;67829;51.968;5.684;2023-11-21T13:51:49;13.1;72.8
78536;SHT31;67829;51.968;5.684;2023-11-21T13:54:21;13.2;72.3
78536;SHT31;67829;51.968;5.684;2023-11-21T13:56:51;13.2;72.3
78536;SHT31;67829;51.968;5.684;2023-11-21T13:59:23;13.2;72.5
78536;SHT31;67829;51.968;5.684;2023-11-21T14:01:55;13.2;72.5
78536;SHT31;67829;51.968;5.684;2023-11-21T14:04:26;13.2;72.1
78536;SHT31;67829;51.968;5.684;2023-11-21T14:07:08;13.2;71.8
78536;SHT31;67829;51.968;5.684;2023-11-21T14:09:47;13.2;72.2
78536;SHT31;67829;51.968;5.684;2023-11-21T14:12:16;13.2;72.2
78536;SHT31;67829;51.968;5.684;2023-11-21T14:14:45;13.2;72.1
78536;SHT31;67829;51.968;5.684;2023-11-21T14:17:14;13.2;71.7
78536;SHT31;67829;51.968;5.684;2023-11-21T14:19:42;13.2;71.0
78536;SHT31;67829;51.968;5.684;2023-11-21T14:22:11;13.1;71.1
78536;SHT31;67829;51.968;5.684;2023-11-21T14:24:40;13.1;71.2
78536;SHT31;67829;51.968;5.684;2023-11-21T14:27:13;13.1;71.4
78536;SHT31;67829;51.968;5.684;2023-11-21T14:29:43;13.0;71.1
78536;SHT31;67829;51.968;5.684;2023-11-21T14:32:12;13.0;70.8
78536;SHT31;67829;51.968;5.684;2023-11-21T14:34:41;13.0;71.5
78536;SHT31;67829;51.968;5.684;2023-11-21T14:37:13;12.9;71.8
78536;SHT31;67829;51.968;5.684;2023-11-21T14:39:41;12.9;72.2
78536;SHT31;67829;51.968;5.684;2023-11-21T14:42:12;12.9;72.3
78536;SHT31;67829;51.968;5.684;2023-11-21T14:44:41;12.9;72.5
78536;SHT31;67829;51.968;5.684;2023-11-21T14:47:10;12.8;72.3
78536;SHT31;67829;51.968;5.684;2023-11-21T14:49:41;12.8;72.5
78536;SHT31;67829;51.968;5.684;2023-11-21T14:52:18;12.8;72.3
78536;SHT31;67829;51.968;5.684;2023-11-21T14:54:59;12.8;72.1
78536;SHT31;67829;51.968;5.684;2023-11-21T14:57:38;12.8;71.8
78536;SHT31;67829;51.968;5.684;2023-11-21T15:00:07;12.7;71.6
78536;SHT31;67829;51.968;5.684;2023-11-21T15:02:41;12.7;71.6
78536;SHT31;67829;51.968;5.684;2023-11-21T15:05:16;12.7;71.2
78536;SHT31;67829;51.968;5.684;2023-11-21T15:07:47;12.6;70.7
78536;SHT31;67829;51.968;5.684;2023-11-21T15:10:16;12.6;70.9
78536;SHT31;67829;51.968;5.684;2023-11-21T15:12:47;12.5;71.1
78536;SHT31;67829;51.968;5.684;2023-11-21T15:15:15;12.5;70.8
78536;SHT31;67829;51.968;5.684;2023-11-21T15:17:45;12.5;70.7
78536;SHT31;67829;51.968;5.684;2023-11-21T15:20:14;12.4;70.4
78536;SHT31;67829;51.968;5.684;2023-11-21T15:22:45;12.4;70.4
78536;SHT31;67829;51.968;5.684;2023-11-21T15:25:13;12.3;70.7
78536;SHT31;67829;51.968;5.684;2023-11-21T15:27:42;12.3;69.8
78536;SHT31;67829;51.968;5.684;2023-11-21T15:30:13;12.2;69.5
78536;SHT31;67829;51.968;5.684;2023-11-21T15:32:42;12.2;69.1
78536;SHT31;67829;51.968;5.684;2023-11-21T15:35:10;12.1;68.9
78536;SHT31;67829;51.968;5.684;2023-11-21T15:37:41;12.1;69.3
78536;SHT31;67829;51.968;5.684;2023-11-21T15:40:10;12.0;69.1
78536;SHT31;67829;51.968;5.684;2023-11-21T15:42:40;12.0;69.1
78536;SHT31;67829;51.968;5.684;2023-11-21T15:45:10;11.9;68.6
78536;SHT31;67829;51.968;5.684;2023-11-21T15:47:39;11.9;68.4
78536;SHT31;67829;51.968;5.684;2023-11-21T15:50:08;11.9;68.0
78536;SHT31;67829;51.968;5.684;2023-11-21T15:52:37;11.8;68.2
78536;SHT31;67829;51.968;5.684;2023-11-21T15:55:06;11.8;67.6
78536;SHT31;67829;51.968;5.684;2023-11-21T15:57:35;11.8;68.1
78536;SHT31;67829;51.968;5.684;2023-11-21T16:00:05;11.7;67.7
78536;SHT31;67829;51.968;5.684;2023-11-21T16:02:38;11.7;67.8
78536;SHT31;67829;51.968;5.684;2023-11-21T16:05:06;11.7;67.6
78536;SHT31;67829;51.968;5.684;2023-11-21T16:07:35;11.6;67.4
78536;SHT31;67829;51.968;5.684;2023-11-21T16:10:06;11.6;67.2
78536;SHT31;67829;51.968;5.684;2023-11-21T16:12:37;11.6;66.7
78536;SHT31;67829;51.968;5.684;2023-11-21T16:15:07;11.5;66.8
78536;SHT31;67829;51.968;5.684;2023-11-21T16:17:38;11.5;65.8
78536;SHT31;67829;51.968;5.684;2023-11-21T16:20:08;11.4;65.8